Time;durP1;ratioP1;P1;durP2;ratioP2;P2;SDS_P1;SDS_P2;PMS_P1;PMS_P2;Temp;Humidity;BMP_temperature;BMP_pressure;BME280_temperature;BME280_humidity;BME280_pressure;Samples;Min_cycle;Max_cycle;Signal;HPM_P1;HPM_P2
2022/06/19 00:31:55;;;;;;;15.15;8.15;;;;;;;15.78;62.49;99187.97;4918606;29;20067;-92
2022/06/19 00:49:38;;;;;;;15.63;7.78;;;;;;;15.95;62.51;99179.38;4920813;29;20036;-89
2022/06/19 01:04:38;;;;;;;19.73;7.68;;;;;;;15.85;62.58;99155.09;4956039;29;20042;-89
2022/06/19 01:22:26;;;;;;;15.75;7.03;;;;;;;15.80;61.05;99150.63;4954386;28;20493;-92
2022/06/19 01:25:15;;;;;;;12.60;6.57;;;;;;;16.26;60.96;99209.00;4921575;29;20047;-89
2022/06/19 01:40:31;;;;;;;15.73;6.88;;;;;;;16.28;61.55;99183.81;4954297;29;20118;-90
2022/06/19 01:53:27;;;;;;;14.43;6.95;;;;;;;16.21;61.55;99170.63;4954428;28;20046;-90
2022/06/19 02:00:49;;;;;;;16.38;6.53;;;;;;;16.43;61.65;99188.53;4953647;29;20047;-89
2022/06/19 02:10:46;;;;;;;18.60;5.90;;;;;;;16.25;61.54;99145.91;4954768;29;20040;-92
2022/06/19 02:15:44;;;;;;;19.92;6.68;;;;;;;16.57;61.85;99185.34;4954026;29;20035;-90
2022/06/19 02:18:29;;;;;;;13.57;6.57;;;;;;;16.17;61.25;99129.16;4937537;29;20054;-91
2022/06/19 02:23:30;;;;;;;17.60;6.07;;;;;;;16.04;60.47;99100.06;4954512;29;20046;-90
2022/06/19 02:30:55;;;;;;;27.13;7.10;;;;;;;16.49;60.80;99154.03;4953976;29;20031;-93
2022/06/19 02:35:51;;;;;;;23.73;6.22;;;;;;;16.39;60.92;99115.91;4953731;29;20035;-92
2022/06/19 02:40:59;;;;;;;20.42;6.63;;;;;;;16.93;60.57;99167.72;4953856;29;20472;-92
2022/06/19 02:43:30;;;;;;;22.13;6.65;;;;;;;16.37;60.82;99061.09;4936786;29;20047;-90
2022/06/19 02:45:57;;;;;;;11.68;6.35;;;;;;;16.85;60.52;99132.81;4953882;29;20505;-93
2022/06/19 02:53:21;;;;;;;21.88;7.32;;;;;;;17.02;60.83;99149.00;4957146;28;20489;-93
2022/06/19 03:00:51;;;;;;;20.15;6.00;;;;;;;17.07;60.51;99151.47;4956958;29;20082;-92
2022/06/19 03:03:25;;;;;;;20.77;6.10;;;;;;;16.78;59.89;99094.00;4956172;29;20110;-90
2022/06/19 03:05:51;;;;;;;16.90;5.93;;;;;;;17.05;60.16;99122.59;4957051;28;20071;-91
2022/06/19 03:10:46;;;;;;;14.52;5.88;;;;;;;16.93;60.23;99090.41;4956959;28;20035;-91
2022/06/19 03:13:22;;;;;;;20.55;7.05;;;;;;;17.15;59.86;99130.31;4923967;29;20043;-91
2022/06/19 03:16:07;;;;;;;13.38;5.78;;;;;;;17.28;58.75;99133.75;4939400;29;20134;-90
2022/06/19 03:21:02;;;;;;;12.27;6.07;;;;;;;17.08;58.68;99072.97;4956996;29;20181;-91
2022/06/19 03:23:29;;;;;;;15.48;5.95;;;;;;;17.40;58.70;99106.00;4939874;29;20047;-90
2022/06/19 03:33:22;;;;;;;9.35;5.28;;;;;;;17.25;58.20;99057.13;4956860;28;20106;-91
2022/06/19 03:40:45;;;;;;;10.13;5.40;;;;;;;17.65;57.59;99098.22;4956061;29;20039;-90
2022/06/19 03:43:12;;;;;;;9.85;4.97;;;;;;;17.41;57.70;99057.03;4923533;29;20047;-90
2022/06/19 03:45:39;;;;;;;13.95;4.90;;;;;;;17.34;57.69;99052.19;4923812;29;20523;-90
2022/06/19 03:57:58;;;;;;;8.40;4.90;;;;;;;17.47;57.73;99045.34;4956102;28;20509;-93
2022/06/19 04:02:53;;;;;;;12.63;4.53;;;;;;;17.68;58.13;99069.00;4954767;28;20596;-92
2022/06/19 04:05:20;;;;;;;12.75;5.30;;;;;;;17.82;57.26;99053.53;4954765;29;20066;-92
2022/06/19 04:07:48;;;;;;;14.73;4.57;;;;;;;18.07;57.07;99091.88;4949262;29;20043;-91
2022/06/19 04:10:18;;;;;;;14.00;4.85;;;;;;;17.73;57.47;99010.66;4938874;29;20134;-95
2022/06/19 04:15:13;;;;;;;11.60;4.47;;;;;;;17.83;57.03;99005.34;4955741;29;20493;-92
2022/06/19 04:17:40;;;;;;;;;;;;;;;18.45;57.57;99081.84;4923341;29;20043;-93
2022/06/19 04:20:08;;;;;;;10.63;4.32;;;;;;;17.90;56.85;98993.59;4938785;29;20392;-92
2022/06/19 04:22:36;;;;;;;9.85;4.07;;;;;;;18.08;56.55;99029.88;4922436;29;20456;-92
2022/06/19 04:25:04;;;;;;;17.75;4.13;;;;;;;18.03;56.43;99003.31;4956168;29;20086;-92
2022/06/19 04:27:32;;;;;;;8.45;4.30;;;;;;;18.26;57.28;99021.84;4955972;29;20518;-95
2022/06/19 04:29:59;;;;;;;11.98;4.15;;;;;;;18.36;56.58;99020.41;4954431;28;20125;-92
2022/06/19 04:32:25;;;;;;;11.50;5.15;;;;;;;18.33;56.83;98993.47;4938542;29;20141;-92
2022/06/19 04:34:52;;;;;;;15.20;4.35;;;;;;;18.72;56.78;99041.13;4907172;29;20050;-94
2022/06/19 04:37:18;;;;;;;8.48;3.95;;;;;;;18.39;56.39;98978.16;4955850;29;20050;-92
2022/06/19 04:39:44;;;;;;;11.15;3.55;;;;;;;18.93;55.47;99049.72;4906858;29;20521;-92
2022/06/19 04:42:11;;;;;;;17.13;4.00;;;;;;;18.88;55.90;99005.75;4938239;29;20043;-91
2022/06/19 04:44:37;;;;;;;6.80;4.13;;;;;;;18.85;54.44;98987.13;4938857;29;20050;-94
2022/06/19 04:49:33;;;;;;;11.88;3.65;;;;;;;19.28;54.23;99034.75;4955258;29;20032;-92
2022/06/19 04:51:59;;;;;;;7.53;3.70;;;;;;;19.32;52.61;99037.53;4938528;29;20094;-92
2022/06/19 04:59:24;;;;;;;13.38;4.20;;;;;;;19.34;53.07;99001.94;4954614;29;20045;-85
2022/06/19 05:01:50;;;;;;;12.00;4.03;;;;;;;19.74;52.57;99047.53;4953601;29;20054;-87
2022/06/19 05:04:17;;;;;;;11.80;3.83;;;;;;;19.56;52.44;99017.59;4955205;28;20299;-87
2022/06/19 05:06:44;;;;;;;10.77;3.90;;;;;;;19.72;52.44;99036.81;4954171;29;20509;-88
2022/06/19 05:09:10;;;;;;;9.15;3.70;;;;;;;19.75;51.70;99038.03;4936249;29;20043;-87
2022/06/19 05:11:36;;;;;;;22.17;4.47;;;;;;;19.88;52.54;99031.81;4953417;29;20059;-86
2022/06/19 05:16:32;;;;;;;7.97;3.67;;;;;;;20.12;52.74;99018.53;4935070;29;20049;-88
2022/06/19 05:19:00;;;;;;;9.68;3.72;;;;;;;20.25;52.39;99032.94;4934703;29;20517;-87
2022/06/19 05:21:26;;;;;;;6.85;3.60;;;;;;;20.26;52.05;99023.41;4951606;29;20039;-88
2022/06/19 05:23:54;;;;;;;17.15;4.35;;;;;;;20.14;51.48;99032.84;4954065;28;20114;-88
2022/06/19 05:26:30;;;;;;;11.23;3.90;;;;;;;20.00;52.70;99021.59;4951121;29;20106;-88
2022/06/19 05:31:26;;;;;;;9.98;3.78;;;;;;;19.95;53.35;99018.00;4953351;28;20453;-87
2022/06/19 05:33:53;;;;;;;12.07;4.85;;;;;;;20.29;52.87;99050.41;4953173;28;20050;-87
2022/06/19 05:36:20;;;;;;;9.48;3.67;;;;;;;20.54;52.43;99022.84;4953621;29;20501;-87
2022/06/19 05:38:47;;;;;;;8.73;3.90;;;;;;;20.81;50.64;99040.88;4936421;29;20035;-87
2022/06/19 05:41:13;;;;;;;16.38;3.85;;;;;;;20.34;50.52;98987.00;4952942;29;20098;-87
2022/06/19 05:46:37;;;;;;;14.13;4.45;;;;;;;20.69;50.66;99030.06;4953857;28;20043;-88
2022/06/19 05:51:32;;;;;;;10.57;4.07;;;;;;;20.53;50.42;99013.72;4953433;28;20038;-88
2022/06/19 05:53:59;;;;;;;14.13;4.43;;;;;;;20.54;51.31;98998.66;4953260;28;20051;-89
2022/06/19 05:56:26;;;;;;;18.50;4.20;;;;;;;20.54;51.25;99000.63;4936427;29;20106;-87
2022/06/19 05:58:53;;;;;;;10.35;4.25;;;;;;;20.61;50.34;99009.00;4953537;29;20043;-87
2022/06/19 06:01:22;;;;;;;12.48;3.67;;;;;;;20.29;50.71;98981.00;4953229;29;20055;-88
2022/06/19 06:03:49;;;;;;;9.68;4.07;;;;;;;20.33;50.50;98990.97;4962806;28;20047;-89
2022/06/19 06:06:24;;;;;;;16.58;3.97;;;;;;;20.11;51.73;98936.50;4952228;29;20142;-89
2022/06/19 06:08:50;;;;;;;10.35;4.00;;;;;;;20.11;50.72;98967.81;4953225;28;20446;-88
2022/06/19 06:11:17;;;;;;;13.45;3.78;;;;;;;20.36;52.39;99001.28;4935209;29;20420;-87
2022/06/19 06:13:43;;;;;;;;;;;;;;;20.40;51.95;99004.09;4952840;29;20114;-87
2022/06/19 06:16:15;;;;;;;16.58;4.60;;;;;;;20.28;52.67;98976.63;4915950;29;19930;-87
2022/06/19 06:18:42;;;;;;;12.15;4.07;;;;;;;20.58;53.19;98998.66;4933612;29;20126;-86
2022/06/19 06:21:17;;;;;;;14.68;3.88;;;;;;;20.63;52.09;99010.22;4933119;29;20401;-85
2022/06/19 06:23:44;;;;;;;17.75;4.35;;;;;;;20.46;51.52;98990.63;4934736;29;20516;-86
2022/06/19 06:26:11;;;;;;;;;;;;;;;20.80;52.89;99013.47;4936404;29;20578;-90
2022/06/19 06:28:43;;;;;;;27.67;4.40;;;;;;;20.51;52.06;98951.44;4954494;28;19922;-86
2022/06/19 06:31:11;;;;;;;16.02;4.50;;;;;;;20.82;51.55;98995.22;4938814;29;20043;-87
2022/06/19 06:33:38;;;;;;;9.90;3.90;;;;;;;20.91;51.46;98989.31;4921682;29;20142;-86
2022/06/19 06:36:05;;;;;;;17.88;5.38;;;;;;;20.79;51.66;98948.75;4954894;29;20061;-87
2022/06/19 06:38:31;;;;;;;;;;;;;;;21.11;50.64;98985.03;4954043;29;20051;-89
2022/06/19 06:40:58;;;;;;;9.13;4.10;;;;;;;21.25;50.74;98967.59;4932892;29;20025;-86
2022/06/19 06:43:25;;;;;;;12.60;3.65;;;;;;;21.60;50.15;98982.78;4953220;29;20565;-85
2022/06/19 06:45:52;;;;;;;11.27;3.80;;;;;;;21.56;49.24;98951.41;4953245;29;20039;-89
2022/06/19 06:48:20;;;;;;;12.40;3.70;;;;;;;21.52;48.87;98954.19;4921273;29;20039;-86
2022/06/19 06:50:46;;;;;;;8.07;3.30;;;;;;;21.49;48.94;98949.41;4941478;29;20070;-87
2022/06/19 06:53:12;;;;;;;;;;;;;;;21.60;49.59;98971.66;4952645;29;20043;-88
2022/06/19 06:55:43;;;;;;;11.10;3.50;;;;;;;21.38;49.47;98950.56;4925001;29;19926;-86
2022/06/19 06:58:10;;;;;;;9.13;3.20;;;;;;;21.16;49.61;98931.06;4935913;29;20082;-87
2022/06/19 07:00:36;;;;;;;9.07;3.47;;;;;;;21.47;50.66;98967.69;4951918;29;20067;-88
2022/06/19 07:03:04;;;;;;;9.02;3.33;;;;;;;21.27;48.77;98920.75;4952683;29;20101;-84
2022/06/19 07:05:31;;;;;;;15.38;3.75;;;;;;;21.51;50.48;98960.91;4951765;29;20505;-87
2022/06/19 07:07:58;;;;;;;13.13;4.45;;;;;;;21.33;50.29;98919.16;4934953;29;20421;-84
2022/06/19 07:10:25;;;;;;;17.02;4.00;;;;;;;21.36;50.41;98917.63;4934666;29;20035;-85
2022/06/19 07:12:51;;;;;;;10.60;3.90;;;;;;;21.32;50.62;98911.19;4934608;29;20051;-85
2022/06/19 07:15:17;;;;;;;14.23;3.70;;;;;;;21.53;50.82;98921.59;4931093;29;20082;-85
2022/06/19 07:17:43;;;;;;;17.70;3.95;;;;;;;21.44;51.03;98919.19;4950997;28;20055;-85
2022/06/19 07:20:10;;;;;;;9.35;3.75;;;;;;;21.50;50.06;98930.75;4933719;29;20508;-85
2022/06/19 07:22:36;;;;;;;9.98;3.83;;;;;;;21.32;49.71;98900.09;4933668;29;20043;-86
2022/06/19 07:25:03;;;;;;;7.38;3.55;;;;;;;21.61;50.33;98931.53;4950259;29;20043;-85
2022/06/19 07:27:30;;;;;;;8.73;3.40;;;;;;;21.45;49.73;98897.75;4948655;29;20070;-86
2022/06/19 07:29:59;;;;;;;9.30;3.47;;;;;;;21.71;49.44;98921.59;4950150;29;20054;-86
2022/06/19 07:32:25;;;;;;;15.55;4.65;;;;;;;21.86;50.15;98922.41;4917185;29;20497;-87
2022/06/19 07:34:51;;;;;;;13.82;3.40;;;;;;;21.67;49.13;98904.91;4934930;29;20047;-86
2022/06/19 07:37:18;;;;;;;9.57;3.50;;;;;;;21.65;49.04;98887.81;4946076;28;20134;-86
2022/06/19 07:39:44;;;;;;;13.77;3.47;;;;;;;21.96;48.27;98902.13;4932767;29;20477;-86
2022/06/19 07:42:10;;;;;;;12.52;3.60;;;;;;;22.03;48.49;98858.34;4947589;28;20286;-84
2022/06/19 07:44:38;;;;;;;10.30;3.70;;;;;;;22.39;47.69;98890.91;4931990;29;20043;-84
2022/06/19 07:50:10;;;;;;;17.38;3.75;;;;;;;22.47;47.59;98906.38;4930004;29;20043;-87
2022/06/19 07:52:38;;;;;;;8.15;3.53;;;;;;;22.17;47.67;98882.59;4913269;29;20107;-85
2022/06/19 07:55:07;;;;;;;14.93;4.13;;;;;;;21.91;47.25;98877.47;4932645;29;20039;-87
2022/06/19 07:57:34;;;;;;;7.45;3.28;;;;;;;21.82;47.18;98894.59;4949757;29;20057;-85
2022/06/19 08:00:01;;;;;;;7.03;3.00;;;;;;;21.67;47.37;98891.00;4940400;29;20239;-85
2022/06/19 08:02:27;;;;;;;11.43;3.55;;;;;;;21.72;48.44;98903.69;4949678;29;20134;-85
2022/06/19 08:04:55;;;;;;;8.13;3.40;;;;;;;21.63;47.59;98872.72;4927437;29;20130;-86
2022/06/19 08:07:21;;;;;;;10.10;3.67;;;;;;;21.90;47.77;98898.94;4909920;29;20055;-85
2022/06/19 08:09:49;;;;;;;18.42;3.50;;;;;;;21.94;47.95;98877.44;4921704;29;20055;-85
2022/06/19 08:12:15;;;;;;;11.52;3.38;;;;;;;22.11;48.04;98866.69;4924926;29;20047;-87
2022/06/19 08:14:41;;;;;;;7.75;3.67;;;;;;;22.35;47.35;98878.97;4924908;29;20055;-86
2022/06/19 08:17:08;;;;;;;11.77;3.50;;;;;;;22.40;47.55;98878.56;4894480;29;20072;-85
2022/06/19 08:19:34;;;;;;;7.95;3.30;;;;;;;22.12;47.64;98840.44;4892839;29;20042;-85
2022/06/19 08:22:01;;;;;;;12.80;3.20;;;;;;;22.35;47.44;98859.47;4889437;29;20044;-88
2022/06/19 08:24:30;;;;;;;11.60;3.55;;;;;;;22.60;46.82;98854.59;4905093;29;20083;-87
2022/06/19 08:27:05;;;;;;;8.98;3.15;;;;;;;22.59;46.10;98844.66;4913562;29;20052;-86
2022/06/19 08:29:34;;;;;;;13.90;3.45;;;;;;;22.72;45.23;98868.09;4898784;29;20057;-87
2022/06/19 08:32:01;;;;;;;16.85;3.20;;;;;;;22.63;46.31;98853.00;4885801;29;20131;-86
2022/06/19 08:34:28;;;;;;;14.45;3.40;;;;;;;22.74;46.35;98865.66;4885558;29;21002;-88
2022/06/19 08:36:58;;;;;;;15.75;3.70;;;;;;;22.48;45.91;98855.88;4900068;29;20055;-83
2022/06/19 08:39:26;;;;;;;11.00;3.80;;;;;;;22.61;46.63;98850.63;4920869;29;20047;-86
2022/06/19 08:41:52;;;;;;;17.40;6.03;;;;;;;22.68;47.63;98861.75;4915693;29;20057;-90
2022/06/19 08:44:36;;;;;;;16.67;4.30;;;;;;;22.65;46.88;98853.38;4942488;29;20516;-86
2022/06/19 08:47:22;;;;;;;11.45;4.15;;;;;;;22.56;46.91;98825.19;4943500;28;20094;-89
2022/06/19 08:49:54;;;;;;;18.15;4.60;;;;;;;22.56;46.38;98825.97;4925876;29;20047;-82
2022/06/19 08:52:26;;;;;;;24.02;4.55;;;;;;;22.68;47.02;98845.03;4929175;29;20047;-86
2022/06/19 08:55:00;;;;;;;14.57;4.03;;;;;;;22.64;47.22;98835.88;4892020;29;20119;-88
2022/06/19 08:57:43;;;;;;;9.57;4.05;;;;;;;22.70;46.86;98839.81;4923671;29;20043;-86
2022/06/19 09:00:20;;;;;;;12.55;5.38;;;;;;;22.68;46.84;98835.84;4922190;29;20071;-88
2022/06/19 09:03:06;;;;;;;20.13;4.97;;;;;;;22.69;46.02;98818.75;4941306;29;20055;-90
2022/06/19 09:05:50;;;;;;;12.55;5.07;;;;;;;22.79;45.51;98822.66;4952560;28;20440;-89
2022/06/19 09:08:57;;;;;;;19.17;3.85;;;;;;;22.85;45.76;98823.03;4969069;28;20520;-88
2022/06/19 09:12:12;;;;;;;19.90;4.78;;;;;;;22.92;46.66;98758.88;4953642;29;20354;-87
2022/06/19 09:15:18;;;;;;;11.80;4.10;;;;;;;23.56;45.64;98811.34;4831081;29;20109;-93
2022/06/19 09:17:59;;;;;;;15.32;4.38;;;;;;;23.56;44.84;98808.56;4933994;29;20186;-91
2022/06/19 09:20:51;;;;;;;19.63;4.55;;;;;;;23.47;45.25;98813.81;4918185;29;20039;-90
2022/06/19 09:23:41;;;;;;;11.25;4.40;;;;;;;23.57;45.92;98810.13;4951156;29;20050;-93
2022/06/19 09:26:16;;;;;;;12.82;4.30;;;;;;;23.57;44.61;98798.97;4946847;29;20058;-90
2022/06/19 09:29:03;;;;;;;10.32;3.75;;;;;;;23.64;44.08;98782.19;4949101;29;20110;-90
2022/06/19 09:31:35;;;;;;;15.48;5.38;;;;;;;23.54;44.41;98757.97;4944630;29;20051;-85
2022/06/19 09:34:14;;;;;;;14.63;6.15;;;;;;;23.56;44.20;98777.09;4942369;29;20055;-86
2022/06/19 09:36:46;;;;;;;16.58;4.55;;;;;;;23.65;44.88;98786.56;4941651;29;20079;-87
2022/06/19 09:39:18;;;;;;;10.65;4.35;;;;;;;23.72;44.54;98773.78;4916919;29;20138;-91
2022/06/19 09:42:14;;;;;;;21.20;4.65;;;;;;;23.72;44.09;98776.56;4946539;29;20043;-87
2022/06/19 09:45:15;;;;;;;10.70;4.00;;;;;;;23.90;43.97;98760.38;4918457;29;20066;-86
2022/06/19 09:48:11;;;;;;;14.77;4.20;;;;;;;24.00;43.65;98748.31;4933964;29;20071;-84
2022/06/19 09:50:51;;;;;;;12.23;4.50;;;;;;;24.02;43.56;98726.34;4951361;29;20049;-85
2022/06/19 09:53:40;;;;;;;10.95;4.68;;;;;;;24.02;43.05;98720.78;4944282;29;20075;-87
2022/06/19 09:56:18;;;;;;;12.75;4.18;;;;;;;24.12;43.22;98736.59;4933534;29;20783;-86
2022/06/19 09:59:03;;;;;;;8.27;3.80;;;;;;;24.21;43.98;98730.50;4933534;29;20043;-88
2022/06/19 10:01:31;;;;;;;11.80;4.40;;;;;;;24.19;42.47;98723.75;4935298;29;20047;-85
2022/06/19 10:04:11;;;;;;;8.65;3.97;;;;;;;24.17;43.16;98701.81;4934059;29;20039;-88
2022/06/19 10:06:45;;;;;;;11.27;4.15;;;;;;;24.27;43.29;98720.47;4937420;29;20051;-85
2022/06/19 10:09:31;;;;;;;15.45;4.28;;;;;;;24.42;42.90;98704.31;4937426;29;20087;-86
2022/06/19 10:12:00;;;;;;;12.88;3.70;;;;;;;24.30;43.10;98697.25;4920768;29;20079;-85
2022/06/19 10:14:46;;;;;;;13.75;4.25;;;;;;;24.47;43.61;98701.03;4932783;29;20174;-85
2022/06/19 10:17:27;;;;;;;12.00;3.92;;;;;;;24.36;43.04;98669.63;4937787;29;20035;-83
2022/06/19 10:20:09;;;;;;;11.27;4.43;;;;;;;24.78;42.75;98693.38;4954976;29;20457;-86
2022/06/19 10:22:55;;;;;;;13.10;5.25;;;;;;;24.99;42.92;98688.63;4939764;29;20398;-87
2022/06/19 10:25:22;;;;;;;15.40;4.55;;;;;;;25.01;42.06;98677.81;4953576;29;20054;-84
2022/06/19 10:28:22;;;;;;;13.85;6.70;;;;;;;25.18;41.47;98673.16;4957086;29;20043;-84
2022/06/19 10:31:01;;;;;;;13.48;5.00;;;;;;;25.18;40.85;98673.94;4937714;29;20404;-83
2022/06/19 10:33:30;;;;;;;9.30;4.57;;;;;;;25.19;41.94;98663.53;4920716;29;20107;-85
2022/06/19 10:36:37;;;;;;;21.00;4.75;;;;;;;25.14;41.72;98669.63;4939008;29;20057;-85
2022/06/19 10:39:26;;;;;;;10.50;4.80;;;;;;;25.29;41.69;98668.94;4947003;29;20043;-84
2022/06/19 10:42:18;;;;;;;12.32;4.05;;;;;;;25.52;40.96;98637.31;4924289;29;20074;-90
2022/06/19 10:45:08;;;;;;;14.85;4.10;;;;;;;25.76;40.64;98626.84;4939770;29;20103;-86
2022/06/19 10:47:46;;;;;;;17.10;5.15;;;;;;;25.90;40.78;98613.78;4956721;29;20061;-90
2022/06/19 10:50:24;;;;;;;13.85;4.63;;;;;;;25.75;40.88;98613.25;4955757;29;20050;-88
2022/06/19 10:53:14;;;;;;;10.43;4.85;;;;;;;25.55;41.08;98602.84;4956645;29;20055;-86
2022/06/19 10:56:01;;;;;;;12.60;4.53;;;;;;;25.50;40.66;98595.00;4937673;29;20088;-86
2022/06/19 10:58:30;;;;;;;15.23;4.07;;;;;;;25.60;40.88;98609.19;4955492;29;20035;-86
2022/06/19 11:01:01;;;;;;;13.02;4.53;;;;;;;25.46;41.32;98608.28;4955896;28;20130;-85
2022/06/19 11:06:52;;;;;;;12.50;4.72;;;;;;;25.30;41.35;98589.41;4943955;29;20039;-86
2022/06/19 11:09:26;;;;;;;20.58;5.22;;;;;;;25.43;41.16;98580.34;4956237;29;20051;-85
2022/06/19 11:11:54;;;;;;;17.27;4.80;;;;;;;25.47;41.25;98579.06;4955620;28;20039;-88
2022/06/19 11:14:34;;;;;;;12.98;4.50;;;;;;;25.38;41.27;98570.44;4938621;29;20374;-86
2022/06/19 11:17:07;;;;;;;18.17;5.05;;;;;;;25.34;41.79;98564.16;4922852;29;20043;-87
2022/06/19 11:19:34;;;;;;;8.55;4.65;;;;;;;25.59;41.47;98599.97;4954969;29;20081;-88
2022/06/19 11:22:00;;;;;;;11.02;4.65;;;;;;;25.27;42.57;98567.88;4953085;29;20047;-86
2022/06/19 11:24:31;;;;;;;20.92;5.20;;;;;;;25.23;42.18;98600.72;4938969;29;20391;-86
2022/06/19 11:26:58;;;;;;;14.35;5.00;;;;;;;25.14;42.61;98616.50;4930435;29;20043;-85
2022/06/19 11:29:27;;;;;;;14.00;4.75;;;;;;;24.85;42.72;98589.03;4934827;29;20108;-86
2022/06/19 11:32:13;;;;;;;15.57;5.18;;;;;;;24.90;43.79;98610.91;4918978;29;20075;-87
2022/06/19 11:34:54;;;;;;;24.80;9.32;;;;;;;24.84;44.07;98607.03;4953936;29;20047;-86
2022/06/19 11:37:43;;;;;;;20.33;6.03;;;;;;;24.54;44.17;98589.16;4952784;29;20504;-86
2022/06/19 11:40:18;;;;;;;29.33;8.60;;;;;;;24.84;44.04;98626.59;4945153;29;20569;-87
2022/06/19 11:42:44;;;;;;;30.13;5.95;;;;;;;24.92;43.04;98614.06;4940813;29;20079;-86
2022/06/19 11:45:17;;;;;;;26.75;6.35;;;;;;;24.96;43.01;98617.56;4935735;29;20114;-89
2022/06/19 11:47:59;;;;;;;22.77;5.20;;;;;;;24.75;43.12;98607.56;4945824;29;20552;-87
2022/06/19 11:50:33;;;;;;;22.23;7.20;;;;;;;24.86;43.67;98626.94;4896377;29;20040;-86
2022/06/19 11:53:08;;;;;;;18.98;6.35;;;;;;;24.69;44.03;98616.88;4924375;29;20043;-83
2022/06/19 11:55:48;;;;;;;17.25;5.03;;;;;;;24.37;43.73;98579.03;4937776;29;20421;-87
2022/06/19 11:58:36;;;;;;;21.08;5.95;;;;;;;24.69;44.26;98614.84;4927510;29;20047;-89
2022/06/19 12:01:13;;;;;;;22.13;5.63;;;;;;;24.66;45.38;98570.97;4913230;29;20042;-91
2022/06/19 12:03:48;;;;;;;33.20;5.75;;;;;;;24.95;43.95;98618.00;4923448;29;20596;-93
2022/06/19 12:06:18;;;;;;;17.35;4.88;;;;;;;24.88;43.82;98585.38;4951781;29;20039;-91
2022/06/19 12:09:00;;;;;;;22.40;5.10;;;;;;;24.80;44.44;98597.88;4931710;29;20537;-90
2022/06/19 12:11:42;;;;;;;13.68;5.03;;;;;;;24.61;44.17;98572.28;4934896;29;20528;-85
2022/06/19 12:14:11;;;;;;;19.30;5.68;;;;;;;24.95;44.10;98615.22;4918223;29;20042;-85
2022/06/19 12:16:39;;;;;;;14.77;5.35;;;;;;;25.02;43.80;98606.69;4918558;29;20066;-85
2022/06/19 12:19:22;;;;;;;21.70;5.43;;;;;;;24.75;44.00;98579.59;4951008;29;20074;-85
2022/06/19 12:22:00;;;;;;;13.07;5.03;;;;;;;24.74;44.98;98594.03;4934048;29;20401;-84
2022/06/19 12:24:46;;;;;;;26.88;5.82;;;;;;;24.74;44.07;98591.22;4922362;29;20036;-85
2022/06/19 12:27:19;;;;;;;16.48;5.40;;;;;;;24.61;44.13;98549.91;4917359;29;20043;-85
2022/06/19 12:29:54;;;;;;;19.60;4.90;;;;;;;24.91;44.43;98547.41;4941560;29;20138;-86
2022/06/19 12:32:26;;;;;;;14.60;4.90;;;;;;;24.93;43.93;98573.69;4934552;29;20520;-86
2022/06/19 12:34:57;;;;;;;27.42;6.47;;;;;;;24.80;44.92;98536.38;4930645;29;20058;-85
2022/06/19 12:37:28;;;;;;;27.98;5.88;;;;;;;25.05;45.44;98536.72;4932215;29;20512;-86
2022/06/19 12:39:56;;;;;;;15.25;5.18;;;;;;;25.42;43.96;98548.78;4934127;29;20097;-83
2022/06/19 12:42:25;;;;;;;16.00;5.13;;;;;;;25.53;43.31;98538.16;4953942;29;20552;-88
2022/06/19 12:45:29;;;;;;;17.27;5.15;;;;;;;25.57;43.41;98535.28;4952799;29;20050;-86
2022/06/19 12:48:26;;;;;;;17.58;5.68;;;;;;;25.47;43.27;98539.09;4935433;29;20051;-89
2022/06/19 12:53:48;;;;;;;19.17;5.88;;;;;;;25.29;44.38;98545.84;4935328;29;20071;-84
2022/06/19 12:56:51;;;;;;;20.73;5.45;;;;;;;25.24;45.35;98549.16;4942153;29;20046;-86
2022/06/19 12:59:27;;;;;;;16.85;6.13;;;;;;;25.01;45.08;98533.19;4952789;28;20054;-88
2022/06/19 13:02:13;;;;;;;19.88;5.95;;;;;;;24.76;45.57;98525.28;4936234;29;20086;-86
2022/06/19 13:05:15;;;;;;;19.13;5.53;;;;;;;24.83;46.37;98529.94;4952685;29;20101;-86
2022/06/19 13:08:04;;;;;;;21.27;6.13;;;;;;;24.77;45.88;98528.88;4951834;29;20150;-86
2022/06/19 13:10:57;;;;;;;18.67;6.18;;;;;;;24.71;46.97;98533.38;4908315;29;20042;-87
2022/06/19 13:13:47;;;;;;;19.40;5.78;;;;;;;24.45;47.22;98509.91;4949696;29;20094;-86
2022/06/19 13:16:27;;;;;;;30.30;6.70;;;;;;;24.32;47.44;98510.47;4945090;29;20043;-89
2022/06/19 13:19:21;;;;;;;21.17;6.32;;;;;;;24.16;47.94;98499.19;4930391;29;20051;-85
2022/06/19 13:22:15;;;;;;;17.90;5.78;;;;;;;24.04;48.03;98502.56;4933477;29;20048;-86
2022/06/19 13:24:50;;;;;;;22.23;6.70;;;;;;;24.13;48.31;98516.78;4932976;29;20106;-85
2022/06/19 13:27:41;;;;;;;14.90;6.45;;;;;;;24.24;48.24;98513.81;4934416;29;20393;-86
2022/06/19 13:30:13;;;;;;;20.73;6.15;;;;;;;24.17;48.09;98519.50;4946650;29;20044;-87
2022/06/19 13:32:52;;;;;;;24.23;6.63;;;;;;;24.14;48.42;98513.56;4930464;29;20386;-84
2022/06/19 13:35:42;;;;;;;28.50;6.53;;;;;;;24.09;48.58;98514.03;4934023;29;20054;-88
2022/06/19 13:38:36;;;;;;;22.92;6.45;;;;;;;24.08;48.44;98511.69;4919107;29;20665;-87
2022/06/19 13:41:27;;;;;;;21.75;6.00;;;;;;;24.14;48.58;98523.97;4928692;29;20623;-88
2022/06/19 13:44:15;;;;;;;25.55;7.15;;;;;;;24.15;48.65;98515.16;4930866;29;20537;-87
2022/06/19 13:47:01;;;;;;;35.13;6.20;;;;;;;24.24;48.34;98522.19;4928193;29;20055;-86
2022/06/19 13:49:36;;;;;;;;;;;;;;;24.32;48.28;98527.22;4935199;29;20044;-87
2022/06/19 13:52:17;;;;;;;18.65;6.57;;;;;;;24.22;47.87;98491.91;4912050;29;19922;-88
2022/06/19 13:54:54;;;;;;;14.63;6.28;;;;;;;24.37;48.32;98498.00;4929145;29;20044;-85
2022/06/19 13:57:48;;;;;;;17.52;6.55;;;;;;;24.45;48.08;98510.69;4927147;29;20040;-87
2022/06/19 14:00:31;;;;;;;22.42;7.38;;;;;;;24.18;47.90;98463.25;4925147;29;20054;-83
2022/06/19 14:04:45;;;;;;;25.67;6.45;;;;;;;24.27;47.90;98490.63;4921160;29;20587;-86
2022/06/19 14:06:12;;;;;;;27.65;6.85;;;;;;;24.10;47.46;98461.78;4934522;29;20047;-85
2022/06/19 14:08:58;;;;;;;33.20;6.75;;;;;;;24.25;48.09;98493.84;4916433;29;20052;-86
2022/06/19 14:12:03;;;;;;;23.83;6.63;;;;;;;24.20;48.14;98479.56;4946663;29;20131;-85
2022/06/19 14:14:17;;;;;;;33.03;6.57;;;;;;;24.43;47.54;98515.13;4930254;29;20051;-85
2022/06/19 14:16:53;;;;;;;19.63;6.50;;;;;;;24.38;48.05;98496.81;4936252;29;20039;-84
2022/06/19 14:19:44;;;;;;;21.42;6.53;;;;;;;24.29;47.70;98479.81;4936455;29;20074;-85
2022/06/19 14:22:23;;;;;;;19.75;6.85;;;;;;;24.47;48.25;98507.44;4934594;29;20428;-84
2022/06/19 14:24:52;;;;;;;19.42;7.00;;;;;;;24.42;48.16;98505.16;4952531;29;20039;-83
2022/06/19 14:27:37;;;;;;;19.90;6.97;;;;;;;24.42;48.29;98519.13;4952809;29;20043;-83
2022/06/19 14:30:17;;;;;;;21.00;6.32;;;;;;;24.37;47.74;98503.59;4944657;29;20417;-84
2022/06/19 14:32:48;;;;;;;25.40;7.57;;;;;;;24.34;48.57;98507.28;4944334;29;20126;-85
2022/06/19 14:35:19;;;;;;;25.50;7.93;;;;;;;24.25;48.25;98493.84;4931476;29;20043;-84
2022/06/19 14:37:57;;;;;;;33.17;7.82;;;;;;;24.23;48.27;98476.72;4936209;29;20559;-86
2022/06/19 14:40:23;;;;;;;25.27;7.35;;;;;;;24.39;48.17;98504.75;4936228;29;20043;-86
2022/06/19 14:42:53;;;;;;;38.15;9.30;;;;;;;24.23;48.25;98476.72;4936235;29;20047;-86
2022/06/19 14:45:23;;;;;;;36.28;7.45;;;;;;;24.27;48.06;98487.81;4953044;29;20047;-86
2022/06/19 14:47:52;;;;;;;36.70;9.82;;;;;;;24.35;48.20;98495.66;4955646;28;20047;-91
2022/06/19 14:50:46;;;;;;;28.52;7.10;;;;;;;24.36;48.11;98494.44;4921318;29;20058;-88
2022/06/19 14:53:42;;;;;;;24.77;7.40;;;;;;;24.14;48.38;98451.38;4937832;29;20047;-88
2022/06/19 14:56:14;;;;;;;19.95;7.40;;;;;;;24.36;47.70;98466.50;4936422;29;20047;-89
2022/06/19 14:58:43;;;;;;;20.88;7.07;;;;;;;24.41;47.91;98470.84;4920287;29;20391;-88
2022/06/19 15:01:34;;;;;;;23.92;7.78;;;;;;;24.30;47.36;98454.25;4920146;29;20095;-88
2022/06/19 15:04:28;;;;;;;21.58;7.28;;;;;;;24.28;47.47;98434.34;4936059;29;20628;-88
2022/06/19 15:07:20;;;;;;;32.03;6.78;;;;;;;24.51;47.55;98467.06;4918940;29;20071;-88
2022/06/19 15:09:54;;;;;;;28.40;6.82;;;;;;;24.50;48.03;98453.50;4919920;29;20587;-88
2022/06/19 15:12:26;;;;;;;24.13;6.57;;;;;;;24.44;47.70;98452.47;4935670;29;20051;-87
2022/06/19 15:14:55;;;;;;;23.45;6.90;;;;;;;24.56;48.12;98469.34;4919977;29;20532;-86